Time;durP1;ratioP1;P1;durP2;ratioP2;P2;SDS_P1;SDS_P2;PMS_P1;PMS_P2;Temp;Humidity;BMP_temperature;BMP_pressure;BME280_temperature;BME280_humidity;BME280_pressure;Samples;Min_cycle;Max_cycle;Signal;HPM_P1;HPM_P2
2022/07/29 00:01:54;;;;;;;5.82;1.27;;;;;;;;;;5132953;27;20038;-63
2022/07/29 00:04:21;;;;;;;1.98;0.60;;;;;;;;;;5133846;27;20365;-63
2022/07/29 00:06:47;;;;;;;1.85;0.98;;;;;;;;;;5133446;27;20466;-64
2022/07/29 00:09:14;;;;;;;1.10;0.70;;;;;;;;;;5123346;27;20418;-63
2022/07/29 00:11:41;;;;;;;2.08;1.20;;;;;;;;;;5112702;28;20398;-63
2022/07/29 00:14:08;;;;;;;0.98;0.73;;;;;;;;;;5108149;28;20019;-65
2022/07/29 00:16:34;;;;;;;2.50;1.20;;;;;;;;;;5107773;28;20020;-63
2022/07/29 00:19:01;;;;;;;5.20;1.80;;;;;;;;;;5116576;27;20114;-63
2022/07/29 00:21:28;;;;;;;1.45;0.90;;;;;;;;;;5111783;27;20028;-63
2022/07/29 00:23:54;;;;;;;2.35;1.42;;;;;;;;;;5112253;28;20094;-63
2022/07/29 00:26:21;;;;;;;3.72;1.40;;;;;;;;;;5113765;28;20038;-63
2022/07/29 00:28:48;;;;;;;2.33;1.30;;;;;;;;;;5112473;28;20083;-63
2022/07/29 00:31:14;;;;;;;8.83;1.17;;;;;;;;;;5112931;28;20088;-63
2022/07/29 00:33:41;;;;;;;2.60;1.60;;;;;;;;;;5112729;28;20415;-63
2022/07/29 00:36:08;;;;;;;17.40;1.87;;;;;;;;;;5109659;28;20393;-63
2022/07/29 00:38:34;;;;;;;2.30;1.30;;;;;;;;;;5124316;28;20454;-63
2022/07/29 00:41:01;;;;;;;3.30;1.50;;;;;;;;;;5127706;28;20094;-63
2022/07/29 00:43:28;;;;;;;3.53;1.87;;;;;;;;;;5127866;28;20027;-63
2022/07/29 00:45:55;;;;;;;2.33;1.27;;;;;;;;;;5130276;28;20020;-64
2022/07/29 00:48:21;;;;;;;8.13;1.43;;;;;;;;;;5129228;28;20048;-63
2022/07/29 00:50:50;;;;;;;4.03;1.20;;;;;;;;;;5113700;28;20023;-63
2022/07/29 00:53:16;;;;;;;5.87;1.80;;;;;;;;;;5112509;28;20028;-63
2022/07/29 00:55:43;;;;;;;2.73;1.43;;;;;;;;;;5112425;28;20489;-63
2022/07/29 00:58:13;;;;;;;3.00;1.33;;;;;;;;;;5109363;28;20470;-63
2022/07/29 01:00:43;;;;;;;1.97;1.30;;;;;;;;;;5107578;28;20027;-63
2022/07/29 01:03:09;;;;;;;1.80;1.07;;;;;;;;;;5114523;28;20020;-62
2022/07/29 01:05:36;;;;;;;1.73;1.03;;;;;;;;;;5107413;28;20413;-63
2022/07/29 01:08:03;;;;;;;2.47;1.50;;;;;;;;;;5109594;28;20355;-62
2022/07/29 01:10:30;;;;;;;4.13;2.20;;;;;;;;;;5112530;28;20028;-62
2022/07/29 01:12:59;;;;;;;1.13;0.90;;;;;;;;;;5131875;28;20030;-63
2022/07/29 01:15:25;;;;;;;12.13;1.37;;;;;;;;;;5132639;28;20377;-63
2022/07/29 01:18:02;;;;;;;6.70;1.97;;;;;;;;;;5132664;28;20031;-63
2022/07/29 01:20:47;;;;;;;3.57;1.47;;;;;;;;;;5129932;28;20042;-63
2022/07/29 01:23:13;;;;;;;;;;;;;;;;;;5087223;28;20032;-63
2022/07/29 01:25:43;;;;;;;2.60;1.50;;;;;;;;;;5112547;27;19918;-63
2022/07/29 01:28:09;;;;;;;2.83;1.10;;;;;;;;;;5131108;27;20041;-63
2022/07/29 01:30:37;;;;;;;7.90;1.90;;;;;;;;;;5130042;27;20023;-63
2022/07/29 01:33:11;;;;;;;1.87;1.40;;;;;;;;;;5129274;27;20498;-63
2022/07/29 01:35:40;;;;;;;1.30;1.07;;;;;;;;;;5128913;27;20027;-63
2022/07/29 01:38:27;;;;;;;16.90;2.10;;;;;;;;;;5125728;27;20107;-63
2022/07/29 01:40:56;;;;;;;2.50;1.70;;;;;;;;;;5130769;27;20104;-63
2022/07/29 01:43:32;;;;;;;2.53;1.50;;;;;;;;;;5117812;27;20040;-65
2022/07/29 01:46:02;;;;;;;3.67;1.27;;;;;;;;;;5113996;27;20047;-65
2022/07/29 01:48:34;;;;;;;1.83;1.40;;;;;;;;;;5109010;28;20028;-64
2022/07/29 01:51:06;;;;;;;3.37;1.37;;;;;;;;;;5108657;28;20032;-65
2022/07/29 01:53:36;;;;;;;3.17;2.03;;;;;;;;;;5113801;28;20023;-64
2022/07/29 01:56:04;;;;;;;1.47;1.00;;;;;;;;;;5115562;28;20378;-64
2022/07/29 01:58:32;;;;;;;4.87;2.10;;;;;;;;;;5115690;28;20080;-64
2022/07/29 02:00:59;;;;;;;3.73;2.00;;;;;;;;;;5109283;28;20024;-65
2022/07/29 02:03:26;;;;;;;3.63;1.27;;;;;;;;;;5114226;28;20069;-65
2022/07/29 02:05:53;;;;;;;2.90;1.50;;;;;;;;;;5108013;28;20035;-64
2022/07/29 02:08:21;;;;;;;2.40;1.50;;;;;;;;;;5106838;28;20027;-64
2022/07/29 02:10:49;;;;;;;2.53;1.63;;;;;;;;;;5109965;28;20382;-64
2022/07/29 02:13:17;;;;;;;5.27;2.37;;;;;;;;;;5109144;27;20492;-65
2022/07/29 02:15:45;;;;;;;14.77;1.83;;;;;;;;;;5123358;27;20023;-64
2022/07/29 02:18:15;;;;;;;5.03;1.70;;;;;;;;;;5135662;27;20112;-64
2022/07/29 02:20:43;;;;;;;3.33;1.97;;;;;;;;;;5118567;27;20059;-64
2022/07/29 02:23:11;;;;;;;2.90;1.70;;;;;;;;;;5114050;28;20081;-64
2022/07/29 02:25:38;;;;;;;1.30;0.97;;;;;;;;;;5114835;28;20023;-64
2022/07/29 02:28:06;;;;;;;4.27;1.93;;;;;;;;;;5110172;28;20020;-64
2022/07/29 02:30:33;;;;;;;2.00;1.37;;;;;;;;;;5108215;28;20394;-65
2022/07/29 02:33:01;;;;;;;2.77;1.60;;;;;;;;;;5108748;28;20028;-64
2022/07/29 02:35:28;;;;;;;2.50;1.60;;;;;;;;;;5108327;28;20084;-64
2022/07/29 02:40:43;;;;;;;4.40;1.60;;;;;;;;;;5114596;28;20081;-62
2022/07/29 02:43:11;;;;;;;5.93;2.23;;;;;;;;;;5114258;28;20016;-62
2022/07/29 02:45:38;;;;;;;5.60;2.13;;;;;;;;;;5114238;28;20079;-63
2022/07/29 02:48:10;;;;;;;3.27;2.00;;;;;;;;;;5114750;28;20024;-63
2022/07/29 02:50:45;;;;;;;4.80;1.83;;;;;;;;;;5109089;28;20028;-63
2022/07/29 02:53:23;;;;;;;2.42;1.52;;;;;;;;;;5107576;28;20455;-63
2022/07/29 02:55:56;;;;;;;5.60;1.97;;;;;;;;;;5108794;28;20035;-63
2022/07/29 02:58:28;;;;;;;3.00;1.73;;;;;;;;;;5108674;28;20113;-63
2022/07/29 03:00:59;;;;;;;2.40;1.63;;;;;;;;;;5113681;28;20107;-63
2022/07/29 03:03:28;;;;;;;5.50;1.80;;;;;;;;;;5114428;28;20519;-63
2022/07/29 03:05:56;;;;;;;2.30;1.63;;;;;;;;;;5114250;28;20024;-63
2022/07/29 03:08:23;;;;;;;13.00;1.97;;;;;;;;;;5114079;28;20047;-63
2022/07/29 03:10:51;;;;;;;2.53;1.43;;;;;;;;;;5114086;28;20088;-63
2022/07/29 03:13:18;;;;;;;1.93;1.47;;;;;;;;;;5109017;28;20102;-62
2022/07/29 03:15:45;;;;;;;2.90;1.37;;;;;;;;;;5108510;28;20026;-63
2022/07/29 03:18:12;;;;;;;1.97;1.43;;;;;;;;;;5108640;28;20038;-63
2022/07/29 03:20:40;;;;;;;3.50;1.13;;;;;;;;;;5108769;28;20023;-63
2022/07/29 03:23:07;;;;;;;4.47;1.70;;;;;;;;;;5113166;28;20047;-62
2022/07/29 03:25:33;;;;;;;3.60;2.37;;;;;;;;;;5113909;28;20031;-63
2022/07/29 03:28:00;;;;;;;5.57;2.30;;;;;;;;;;5113922;28;20030;-62
2022/07/29 03:30:28;;;;;;;3.50;1.80;;;;;;;;;;5113882;28;20016;-63
2022/07/29 03:32:55;;;;;;;9.10;2.47;;;;;;;;;;5116695;27;20018;-64
2022/07/29 03:35:22;;;;;;;2.20;1.53;;;;;;;;;;5109059;28;20031;-64
2022/07/29 03:37:49;;;;;;;8.90;1.83;;;;;;;;;;5108682;28;20041;-64
2022/07/29 03:40:19;;;;;;;4.20;1.83;;;;;;;;;;5109374;27;20028;-64
2022/07/29 03:42:46;;;;;;;1.80;1.20;;;;;;;;;;5117606;27;20031;-69
2022/07/29 03:45:14;;;;;;;2.00;1.37;;;;;;;;;;5110470;28;20096;-69
2022/07/29 03:47:43;;;;;;;2.10;1.23;;;;;;;;;;5112857;28;20015;-68
2022/07/29 03:50:13;;;;;;;2.07;1.53;;;;;;;;;;5114977;27;20052;-63
2022/07/29 03:52:39;;;;;;;8.70;1.97;;;;;;;;;;5121739;27;20035;-63
2022/07/29 03:55:06;;;;;;;1.33;1.13;;;;;;;;;;5113299;28;20539;-63
2022/07/29 03:57:34;;;;;;;3.43;1.17;;;;;;;;;;5108602;28;20096;-65
2022/07/29 04:00:02;;;;;;;1.50;0.83;;;;;;;;;;5107858;28;20036;-65
2022/07/29 04:02:29;;;;;;;2.00;1.40;;;;;;;;;;5107851;27;20053;-67
2022/07/29 04:04:55;;;;;;;1.40;1.00;;;;;;;;;;5106800;28;20027;-65
2022/07/29 04:07:22;;;;;;;1.33;0.73;;;;;;;;;;5112346;27;20088;-68
2022/07/29 04:09:49;;;;;;;3.33;1.20;;;;;;;;;;5113190;28;20031;-66
2022/07/29 04:12:15;;;;;;;3.43;2.13;;;;;;;;;;5113032;28;20031;-66
2022/07/29 04:14:42;;;;;;;1.93;1.30;;;;;;;;;;5113128;28;20050;-68
2022/07/29 04:17:09;;;;;;;1.17;0.90;;;;;;;;;;5113793;27;20466;-64
2022/07/29 04:19:35;;;;;;;1.43;1.00;;;;;;;;;;5109192;28;20031;-67
2022/07/29 04:22:02;;;;;;;2.13;1.40;;;;;;;;;;5108227;27;20019;-66
2022/07/29 04:24:29;;;;;;;1.43;1.10;;;;;;;;;;5107628;28;20020;-63
2022/07/29 04:26:56;;;;;;;1.60;1.23;;;;;;;;;;5107487;28;20448;-63
2022/07/29 04:29:23;;;;;;;2.27;1.23;;;;;;;;;;5110429;28;20027;-63
2022/07/29 04:31:49;;;;;;;2.70;1.37;;;;;;;;;;5117832;27;20026;-64
2022/07/29 04:34:16;;;;;;;4.60;1.90;;;;;;;;;;5133191;27;20064;-63
2022/07/29 04:36:43;;;;;;;2.03;1.33;;;;;;;;;;5133330;27;20046;-63
2022/07/29 04:39:10;;;;;;;3.20;1.20;;;;;;;;;;5132852;28;20050;-64
2022/07/29 04:41:37;;;;;;;1.60;1.00;;;;;;;;;;5127775;28;20028;-63
2022/07/29 04:44:05;;;;;;;1.53;0.80;;;;;;;;;;5127233;28;20019;-64
2022/07/29 04:46:32;;;;;;;2.43;1.30;;;;;;;;;;5127718;28;20496;-63
2022/07/29 04:48:58;;;;;;;1.93;1.40;;;;;;;;;;5127784;28;20405;-63
2022/07/29 04:51:25;;;;;;;2.50;1.43;;;;;;;;;;5128535;28;20023;-63
2022/07/29 04:53:52;;;;;;;4.70;1.90;;;;;;;;;;5112629;28;20078;-63
2022/07/29 04:56:18;;;;;;;2.70;1.40;;;;;;;;;;5112014;28;20023;-63
2022/07/29 04:58:45;;;;;;;1.47;1.03;;;;;;;;;;5112514;28;20032;-63
2022/07/29 05:01:12;;;;;;;2.57;1.43;;;;;;;;;;5114712;28;20027;-63
2022/07/29 05:03:38;;;;;;;1.97;1.00;;;;;;;;;;5133719;27;20434;-63
2022/07/29 05:06:05;;;;;;;3.73;1.47;;;;;;;;;;5131926;27;20019;-64
2022/07/29 05:08:32;;;;;;;1.93;1.50;;;;;;;;;;5131609;27;20023;-63
2022/07/29 05:10:59;;;;;;;2.70;1.30;;;;;;;;;;5131865;27;20020;-63
2022/07/29 05:13:25;;;;;;;1.33;1.10;;;;;;;;;;5115109;27;20032;-63
2022/07/29 05:15:52;;;;;;;2.70;1.40;;;;;;;;;;5116054;28;20062;-63
2022/07/29 05:18:18;;;;;;;1.50;1.07;;;;;;;;;;5116448;28;20047;-63
2022/07/29 05:20:45;;;;;;;1.43;1.00;;;;;;;;;;5116261;28;20363;-63
2022/07/29 05:23:12;;;;;;;1.23;0.80;;;;;;;;;;5131711;27;20054;-63
2022/07/29 05:25:39;;;;;;;1.93;1.30;;;;;;;;;;5134557;27;20015;-63
2022/07/29 05:28:07;;;;;;;1.47;1.00;;;;;;;;;;5131533;27;20027;-63
2022/07/29 05:30:33;;;;;;;1.97;1.50;;;;;;;;;;5131115;27;20023;-64
2022/07/29 05:33:00;;;;;;;3.47;1.50;;;;;;;;;;5116917;27;20034;-63
2022/07/29 05:35:27;;;;;;;8.30;1.80;;;;;;;;;;5112028;28;20045;-63
2022/07/29 05:37:53;;;;;;;13.27;0.93;;;;;;;;;;5116031;28;20028;-63
2022/07/29 05:40:20;;;;;;;2.93;1.60;;;;;;;;;;5116058;28;20427;-63
2022/07/29 05:42:47;;;;;;;0.63;0.63;;;;;;;;;;5127359;27;20031;-63
2022/07/29 05:45:14;;;;;;;1.80;0.90;;;;;;;;;;5136546;27;20027;-63
2022/07/29 05:47:40;;;;;;;1.47;0.97;;;;;;;;;;5134831;27;20492;-63
2022/07/29 05:50:07;;;;;;;1.43;0.90;;;;;;;;;;5130533;27;20019;-63
2022/07/29 05:52:34;;;;;;;1.77;1.10;;;;;;;;;;5121249;27;20059;-63
2022/07/29 05:55:04;;;;;;;5.77;1.70;;;;;;;;;;5111267;27;20031;-63
2022/07/29 05:57:30;;;;;;;1.07;0.87;;;;;;;;;;5110652;28;20034;-63
2022/07/29 05:59:57;;;;;;;1.57;1.07;;;;;;;;;;5115609;28;20042;-63
2022/07/29 06:02:24;;;;;;;1.53;1.23;;;;;;;;;;5115523;28;20023;-63
2022/07/29 06:04:50;;;;;;;2.50;1.27;;;;;;;;;;5124721;27;20023;-63
2022/07/29 06:07:17;;;;;;;3.47;1.10;;;;;;;;;;5135963;27;20015;-63
2022/07/29 06:09:44;;;;;;;1.67;1.27;;;;;;;;;;5135363;27;20054;-63
2022/07/29 06:12:11;;;;;;;1.93;0.93;;;;;;;;;;5130107;27;20086;-63
2022/07/29 06:14:38;;;;;;;1.20;0.90;;;;;;;;;;5122465;27;20378;-63
2022/07/29 06:17:05;;;;;;;1.23;0.90;;;;;;;;;;5114247;27;20027;-63
2022/07/29 06:19:32;;;;;;;1.27;1.00;;;;;;;;;;5130262;27;20473;-63
2022/07/29 06:21:59;;;;;;;7.17;0.80;;;;;;;;;;5135503;27;20473;-63
2022/07/29 06:24:25;;;;;;;0.93;0.73;;;;;;;;;;5129769;27;20039;-63
2022/07/29 06:26:52;;;;;;;1.73;1.07;;;;;;;;;;5115168;28;20043;-63
2022/07/29 06:29:19;;;;;;;1.43;0.93;;;;;;;;;;5115021;28;20501;-63
2022/07/29 06:31:46;;;;;;;1.50;1.17;;;;;;;;;;5114942;28;20027;-62
2022/07/29 06:34:12;;;;;;;2.73;1.37;;;;;;;;;;5112818;27;20024;-63
2022/07/29 06:36:39;;;;;;;1.23;1.00;;;;;;;;;;5130162;27;20049;-63
2022/07/29 06:39:06;;;;;;;2.73;1.57;;;;;;;;;;5129587;27;20027;-63
2022/07/29 06:41:33;;;;;;;0.67;0.53;;;;;;;;;;5129937;27;20023;-63
2022/07/29 06:44:00;;;;;;;3.43;1.30;;;;;;;;;;5133016;27;20544;-63
2022/07/29 06:46:27;;;;;;;2.17;1.73;;;;;;;;;;5114730;28;20027;-63
2022/07/29 06:48:54;;;;;;;4.83;1.30;;;;;;;;;;5114518;28;20077;-63
2022/07/29 06:51:21;;;;;;;1.77;1.37;;;;;;;;;;5114653;28;20104;-62
2022/07/29 06:53:48;;;;;;;2.00;1.50;;;;;;;;;;5114560;28;20031;-63
2022/07/29 06:56:15;;;;;;;1.07;0.90;;;;;;;;;;5129084;27;20063;-63
2022/07/29 06:58:41;;;;;;;3.03;1.43;;;;;;;;;;5129455;27;20088;-63
2022/07/29 07:01:08;;;;;;;1.20;0.83;;;;;;;;;;5129706;27;20394;-63
2022/07/29 07:03:35;;;;;;;2.23;1.50;;;;;;;;;;5129592;27;20050;-63
2022/07/29 07:06:01;;;;;;;0.90;0.80;;;;;;;;;;5115469;27;20023;-63
2022/07/29 07:08:28;;;;;;;1.57;1.23;;;;;;;;;;5114318;28;20028;-63
2022/07/29 07:10:56;;;;;;;1.70;1.27;;;;;;;;;;5114180;28;20518;-63
2022/07/29 07:13:22;;;;;;;2.37;1.33;;;;;;;;;;5113619;28;20075;-63
2022/07/29 07:15:50;;;;;;;5.17;1.67;;;;;;;;;;5129981;27;20038;-63
2022/07/29 07:18:17;;;;;;;1.57;1.23;;;;;;;;;;5130063;27;20031;-63
2022/07/29 07:20:44;;;;;;;1.30;0.73;;;;;;;;;;5129250;27;20057;-63
2022/07/29 07:23:11;;;;;;;1.83;1.13;;;;;;;;;;5128200;27;20019;-62
2022/07/29 07:25:38;;;;;;;1.07;0.77;;;;;;;;;;5114656;27;20452;-63
2022/07/29 07:28:05;;;;;;;1.27;0.80;;;;;;;;;;5112148;28;20386;-62
2022/07/29 07:30:31;;;;;;;1.23;0.83;;;;;;;;;;5113495;28;20089;-62
2022/07/29 07:32:58;;;;;;;1.00;0.90;;;;;;;;;;5113949;28;20020;-63
2022/07/29 07:35:26;;;;;;;2.40;1.53;;;;;;;;;;5113757;28;20026;-63
2022/07/29 07:37:53;;;;;;;1.23;0.93;;;;;;;;;;5127209;27;20015;-63
2022/07/29 07:40:19;;;;;;;13.67;1.70;;;;;;;;;;5129921;27;20034;-63
2022/07/29 07:42:46;;;;;;;1.40;1.23;;;;;;;;;;5128780;27;20494;-63
2022/07/29 07:45:13;;;;;;;3.40;1.33;;;;;;;;;;5128108;27;20019;-62
2022/07/29 07:47:39;;;;;;;0.80;0.80;;;;;;;;;;5128464;27;20106;-63
2022/07/29 07:50:07;;;;;;;1.27;1.00;;;;;;;;;;5116920;27;20081;-63
2022/07/29 07:52:34;;;;;;;3.80;1.67;;;;;;;;;;5113453;28;20027;-62
2022/07/29 07:55:01;;;;;;;2.40;0.67;;;;;;;;;;5113324;28;20073;-62
2022/07/29 07:57:28;;;;;;;3.67;1.00;;;;;;;;;;5095169;28;20435;-62
2022/07/29 07:59:54;;;;;;;4.83;1.77;;;;;;;;;;5113197;28;20027;-63
2022/07/29 08:02:21;;;;;;;1.10;0.67;;;;;;;;;;5127895;27;20092;-63
2022/07/29 08:04:47;;;;;;;2.13;1.53;;;;;;;;;;5128302;27;20439;-62
2022/07/29 08:07:14;;;;;;;1.40;1.20;;;;;;;;;;5128497;27;20022;-62
2022/07/29 08:09:41;;;;;;;1.30;0.97;;;;;;;;;;5128210;27;20027;-62
2022/07/29 08:12:08;;;;;;;7.37;1.60;;;;;;;;;;5130910;27;20027;-63
2022/07/29 08:14:35;;;;;;;1.80;1.20;;;;;;;;;;5114194;27;20107;-62
2022/07/29 08:17:01;;;;;;;1.00;0.80;;;;;;;;;;5112637;28;20026;-63
2022/07/29 08:19:28;;;;;;;1.83;1.27;;;;;;;;;;5113058;28;20116;-62
2022/07/29 08:21:55;;;;;;;1.27;1.00;;;;;;;;;;5112668;28;20443;-62
2022/07/29 08:27:07;;;;;;;0.97;0.77;;;;;;;;;;5128347;27;20038;-63
2022/07/29 08:29:34;;;;;;;1.67;1.07;;;;;;;;;;5127531;27;20027;-62
2022/07/29 08:32:01;;;;;;;1.33;0.57;;;;;;;;;;5121513;27;20031;-62
2022/07/29 08:34:28;;;;;;;1.90;1.37;;;;;;;;;;5110248;28;20028;-63
2022/07/29 08:36:55;;;;;;;1.43;1.10;;;;;;;;;;5112616;28;20027;-62
2022/07/29 08:39:22;;;;;;;2.13;1.30;;;;;;;;;;5112363;28;20382;-63
2022/07/29 08:41:50;;;;;;;5.83;1.47;;;;;;;;;;5116832;28;20558;-62
2022/07/29 08:44:17;;;;;;;1.07;0.80;;;;;;;;;;5133150;28;20063;-62
2022/07/29 08:46:44;;;;;;;1.63;1.10;;;;;;;;;;5127812;28;20019;-63
2022/07/29 08:49:11;;;;;;;2.03;1.63;;;;;;;;;;5127599;28;20540;-62
2022/07/29 08:51:39;;;;;;;2.67;1.67;;;;;;;;;;5127840;28;20110;-62
2022/07/29 08:54:06;;;;;;;1.47;1.10;;;;;;;;;;5127953;28;20012;-62
2022/07/29 08:56:33;;;;;;;1.40;1.03;;;;;;;;;;5122072;28;20031;-62
2022/07/29 08:59:03;;;;;;;1.37;1.07;;;;;;;;;;5113535;28;20043;-62
2022/07/29 09:01:31;;;;;;;2.20;1.50;;;;;;;;;;5112123;28;20114;-62
2022/07/29 09:04:00;;;;;;;2.50;1.10;;;;;;;;;;5112240;28;20085;-63
2022/07/29 09:06:33;;;;;;;0.83;0.73;;;;;;;;;;5112602;28;20378;-62
2022/07/29 09:09:00;;;;;;;1.13;0.87;;;;;;;;;;5119978;28;20542;-62
2022/07/29 09:11:28;;;;;;;1.50;1.03;;;;;;;;;;5127647;28;20023;-62
2022/07/29 09:13:54;;;;;;;1.50;1.00;;;;;;;;;;5127416;28;20015;-62
2022/07/29 09:16:21;;;;;;;1.20;0.90;;;;;;;;;;5127309;28;20529;-62
2022/07/29 09:18:48;;;;;;;1.73;1.13;;;;;;;;;;5130156;28;20031;-62
2022/07/29 09:24:08;;;;;;;1.60;1.30;;;;;;;;;;5112394;28;20080;-62
2022/07/29 09:26:37;;;;;;;2.33;1.85;;;;;;;;;;5111845;28;20104;-62
2022/07/29 09:29:31;;;;;;;7.43;1.23;;;;;;;;;;5112096;28;20042;-62
2022/07/29 09:31:57;;;;;;;1.00;0.90;;;;;;;;;;5104311;28;20041;-63
2022/07/29 09:34:26;;;;;;;2.53;1.03;;;;;;;;;;5107671;28;20022;-62
2022/07/29 09:36:54;;;;;;;1.27;0.97;;;;;;;;;;5106531;28;20032;-63
2022/07/29 09:39:38;;;;;;;1.10;1.00;;;;;;;;;;5106585;28;20035;-62
2022/07/29 09:42:06;;;;;;;1.63;0.87;;;;;;;;;;5111727;28;20020;-62
2022/07/29 09:44:47;;;;;;;1.23;0.97;;;;;;;;;;5113275;28;20019;-62
2022/07/29 09:47:14;;;;;;;1.27;1.17;;;;;;;;;;5114042;28;20400;-62
2022/07/29 09:49:53;;;;;;;1.37;1.07;;;;;;;;;;5116144;28;20115;-62
2022/07/29 09:52:20;;;;;;;2.63;1.77;;;;;;;;;;5115035;28;20165;-62
2022/07/29 09:54:47;;;;;;;0.53;0.50;;;;;;;;;;5114967;27;20421;-62
2022/07/29 09:57:24;;;;;;;1.63;1.00;;;;;;;;;;5130842;27;20477;-62
2022/07/29 10:00:00;;;;;;;1.23;1.07;;;;;;;;;;5130754;27;20035;-62
2022/07/29 10:02:31;;;;;;;0.80;0.73;;;;;;;;;;5131527;27;20558;-62
2022/07/29 10:04:57;;;;;;;8.57;1.23;;;;;;;;;;5136089;27;20052;-62
2022/07/29 10:07:24;;;;;;;0.63;0.43;;;;;;;;;;5127226;27;20435;-62
2022/07/29 10:09:55;;;;;;;0.63;0.60;;;;;;;;;;5115058;28;20055;-62
2022/07/29 10:12:22;;;;;;;2.23;1.47;;;;;;;;;;5115525;28;20059;-62
2022/07/29 10:14:49;;;;;;;0.57;0.57;;;;;;;;;;5114086;28;20031;-62
2022/07/29 10:17:16;;;;;;;1.13;0.80;;;;;;;;;;5109818;28;20049;-62
2022/07/29 10:19:43;;;;;;;0.97;0.83;;;;;;;;;;5119478;27;20035;-62
2022/07/29 10:22:10;;;;;;;0.87;0.80;;;;;;;;;;5130242;27;20030;-62
2022/07/29 10:24:38;;;;;;;1.27;0.90;;;;;;;;;;5130832;27;20043;-62
2022/07/29 10:27:06;;;;;;;1.83;1.40;;;;;;;;;;5135603;27;20019;-62
2022/07/29 10:29:33;;;;;;;1.20;0.87;;;;;;;;;;5135698;27;20023;-62
2022/07/29 10:32:10;;;;;;;1.07;0.93;;;;;;;;;;5124982;27;20023;-62
2022/07/29 10:35:03;;;;;;;1.90;1.00;;;;;;;;;;5114944;28;20171;-62
2022/07/29 10:37:48;;;;;;;1.30;1.00;;;;;;;;;;5108956;28;20040;-62
2022/07/29 10:43:20;;;;;;;1.40;1.00;;;;;;;;;;5110779;27;20064;-62
2022/07/29 10:45:49;;;;;;;2.10;1.13;;;;;;;;;;5118303;27;20031;-62
2022/07/29 10:48:16;;;;;;;0.83;0.80;;;;;;;;;;5133751;27;20027;-62
2022/07/29 10:51:05;;;;;;;2.43;1.23;;;;;;;;;;5134959;27;20059;-62
2022/07/29 10:53:52;;;;;;;0.60;0.60;;;;;;;;;;5135311;27;20043;-62
2022/07/29 10:56:25;;;;;;;0.70;0.67;;;;;;;;;;5121771;27;20371;-62
2022/07/29 10:59:10;;;;;;;3.70;1.30;;;;;;;;;;5113530;28;20036;-63
2022/07/29 11:01:37;;;;;;;2.20;1.05;;;;;;;;;;5109025;28;20028;-62
2022/07/29 11:04:04;;;;;;;1.90;1.20;;;;;;;;;;5109022;28;20023;-62
2022/07/29 11:06:49;;;;;;;2.47;0.80;;;;;;;;;;5109049;28;20493;-62
2022/07/29 11:09:18;;;;;;;3.30;1.83;;;;;;;;;;5129129;27;20019;-62
2022/07/29 11:11:45;;;;;;;0.93;0.83;;;;;;;;;;5127298;27;20026;-62
2022/07/29 11:14:12;;;;;;;1.63;1.17;;;;;;;;;;5114192;28;20042;-62
2022/07/29 11:16:56;;;;;;;1.30;1.20;;;;;;;;;;5114222;28;20091;-62
2022/07/29 11:19:23;;;;;;;1.67;0.90;;;;;;;;;;5115003;27;20027;-62
2022/07/29 11:21:51;;;;;;;0.90;0.87;;;;;;;;;;5132524;27;20027;-62
2022/07/29 11:24:43;;;;;;;1.10;0.67;;;;;;;;;;5129159;27;20043;-62
2022/07/29 11:27:21;;;;;;;0.77;0.77;;;;;;;;;;5124591;27;20565;-62
2022/07/29 11:29:52;;;;;;;1.03;0.80;;;;;;;;;;5128941;27;20027;-62
2022/07/29 11:32:19;;;;;;;0.93;0.73;;;;;;;;;;5119759;27;20466;-63
2022/07/29 11:34:47;;;;;;;1.20;0.90;;;;;;;;;;5113874;28;20020;-62
2022/07/29 11:37:15;;;;;;;0.60;0.50;;;;;;;;;;5113807;28;20024;-62
2022/07/29 11:39:43;;;;;;;1.27;1.07;;;;;;;;;;5113635;28;20054;-62
2022/07/29 11:42:22;;;;;;;2.30;1.50;;;;;;;;;;5113388;28;20027;-62
2022/07/29 11:45:09;;;;;;;2.30;0.90;;;;;;;;;;5126601;27;20023;-62
2022/07/29 11:47:40;;;;;;;1.50;0.80;;;;;;;;;;5128492;27;20098;-62
2022/07/29 11:50:09;;;;;;;1.50;1.40;;;;;;;;;;5128384;27;20087;-63
2022/07/29 11:52:42;;;;;;;0.87;0.80;;;;;;;;;;5128577;27;20023;-62
2022/07/29 11:55:11;;;;;;;1.27;1.07;;;;;;;;;;5130394;27;20015;-62
2022/07/29 11:57:38;;;;;;;1.20;1.03;;;;;;;;;;5113322;28;20032;-62
2022/07/29 12:00:08;;;;;;;4.53;1.33;;;;;;;;;;5113251;28;20432;-62
2022/07/29 12:02:42;;;;;;;2.33;1.33;;;;;;;;;;5112707;28;20132;-62
2022/07/29 12:05:10;;;;;;;0.80;0.67;;;;;;;;;;5113512;27;20027;-62
2022/07/29 12:07:37;;;;;;;1.60;1.43;;;;;;;;;;5108249;28;20111;-62
2022/07/29 12:10:04;;;;;;;1.50;0.93;;;;;;;;;;5107439;28;20047;-62
2022/07/29 12:12:31;;;;;;;0.70;0.70;;;;;;;;;;5108004;28;20020;-62
2022/07/29 12:14:58;;;;;;;6.40;2.33;;;;;;;;;;5107733;28;20378;-62
2022/07/29 12:17:28;;;;;;;2.70;2.17;;;;;;;;;;5130168;27;20027;-61
2022/07/29 12:19:55;;;;;;;1.43;1.03;;;;;;;;;;5133453;27;20039;-61
2022/07/29 12:22:26;;;;;;;2.50;1.80;;;;;;;;;;5133369;27;20055;-62
2022/07/29 12:24:54;;;;;;;3.33;2.17;;;;;;;;;;5133497;27;20106;-63
2022/07/29 12:27:20;;;;;;;7.17;4.43;;;;;;;;;;5131056;27;20102;-62
2022/07/29 12:29:57;;;;;;;5.03;3.83;;;;;;;;;;5107888;28;20102;-62
2022/07/29 12:32:24;;;;;;;8.70;4.97;;;;;;;;;;5126876;27;20031;-62
2022/07/29 12:34:51;;;;;;;3.70;2.63;;;;;;;;;;5128062;27;20054;-62
2022/07/29 12:37:18;;;;;;;3.00;2.10;;;;;;;;;;5127860;27;20482;-61
2022/07/29 12:39:45;;;;;;;2.87;2.20;;;;;;;;;;5128899;27;20032;-62
2022/07/29 12:42:16;;;;;;;5.33;2.57;;;;;;;;;;5112793;28;20059;-62
2022/07/29 12:44:49;;;;;;;3.10;1.80;;;;;;;;;;5112300;28;20015;-62
2022/07/29 12:47:17;;;;;;;2.47;1.90;;;;;;;;;;5112541;28;20036;-62
2022/07/29 12:49:45;;;;;;;1.23;1.10;;;;;;;;;;5112565;28;20031;-62
2022/07/29 12:52:24;;;;;;;1.57;1.17;;;;;;;;;;5115963;28;20112;-62
2022/07/29 12:54:51;;;;;;;0.77;0.77;;;;;;;;;;5127438;28;20378;-62
2022/07/29 12:57:18;;;;;;;1.03;0.93;;;;;;;;;;5127620;28;20509;-63
2022/07/29 12:59:44;;;;;;;6.90;3.33;;;;;;;;;;5127659;28;20031;-62
2022/07/29 13:02:23;;;;;;;2.90;1.83;;;;;;;;;;5132714;28;20027;-62
2022/07/29 13:04:57;;;;;;;4.07;1.87;;;;;;;;;;5120869;28;20393;-63
2022/07/29 13:07:29;;;;;;;3.57;1.73;;;;;;;;;;5112201;28;20505;-61
2022/07/29 13:10:10;;;;;;;3.03;2.00;;;;;;;;;;5112604;28;20450;-61
2022/07/29 13:12:37;;;;;;;1.97;1.67;;;;;;;;;;5110989;28;20417;-62
2022/07/29 13:15:13;;;;;;;4.03;2.73;;;;;;;;;;5106936;28;20068;-62
2022/07/29 13:17:44;;;;;;;2.33;1.73;;;;;;;;;;5125731;28;20046;-62
2022/07/29 13:20:14;;;;;;;2.47;1.57;;;;;;;;;;5127441;27;20035;-62
2022/07/29 13:22:42;;;;;;;2.20;1.63;;;;;;;;;;5131820;27;20026;-62
2022/07/29 13:25:09;;;;;;;4.67;2.57;;;;;;;;;;5136877;27;20023;-62
2022/07/29 13:27:37;;;;;;;6.57;3.23;;;;;;;;;;5135135;27;20023;-62
2022/07/29 13:30:05;;;;;;;4.73;2.43;;;;;;;;;;5116006;28;20072;-62
2022/07/29 13:32:34;;;;;;;4.33;3.03;;;;;;;;;;5115800;28;20027;-61
2022/07/29 13:35:02;;;;;;;3.63;1.90;;;;;;;;;;5114443;28;20038;-62
2022/07/29 13:37:29;;;;;;;2.80;2.23;;;;;;;;;;5110649;28;20092;-63
2022/07/29 13:39:56;;;;;;;6.87;2.00;;;;;;;;;;5113684;27;20037;-62
2022/07/29 13:42:24;;;;;;;4.30;2.70;;;;;;;;;;5123538;27;20038;-62
2022/07/29 13:44:51;;;;;;;2.43;1.80;;;;;;;;;;5111556;28;20047;-62
2022/07/29 13:47:19;;;;;;;3.90;1.40;;;;;;;;;;5115370;28;20190;-62
2022/07/29 13:49:46;;;;;;;4.20;2.27;;;;;;;;;;5115718;28;20054;-62
2022/07/29 13:52:13;;;;;;;2.33;1.60;;;;;;;;;;5122827;27;20068;-62
2022/07/29 13:54:39;;;;;;;4.70;1.77;;;;;;;;;;5136268;27;20481;-62
2022/07/29 13:57:06;;;;;;;2.10;1.37;;;;;;;;;;5134838;27;20022;-62
2022/07/29 13:59:33;;;;;;;2.20;1.57;;;;;;;;;;5130856;27;20039;-62
2022/07/29 14:02:00;;;;;;;2.40;1.80;;;;;;;;;;5128995;27;20466;-62
2022/07/29 14:04:26;;;;;;;1.90;1.27;;;;;;;;;;5130433;27;20015;-62
2022/07/29 14:06:53;;;;;;;2.17;1.53;;;;;;;;;;5131365;27;20019;-62
2022/07/29 14:09:20;;;;;;;3.37;1.03;;;;;;;;;;5135998;27;20092;-63
2022/07/29 14:11:49;;;;;;;2.57;1.87;;;;;;;;;;5133555;27;20024;-62
2022/07/29 14:14:16;;;;;;;3.73;1.93;;;;;;;;;;5115391;28;20024;-62
2022/07/29 14:16:42;;;;;;;1.77;1.17;;;;;;;;;;5115409;28;20433;-62
2022/07/29 14:19:10;;;;;;;3.10;1.90;;;;;;;;;;5113717;28;20653;-62
2022/07/29 14:21:38;;;;;;;14.83;1.70;;;;;;;;;;5116545;27;20080;-62
2022/07/29 14:24:05;;;;;;;1.83;1.27;;;;;;;;;;5130356;27;20068;-62
2022/07/29 14:26:32;;;;;;;1.40;1.07;;;;;;;;;;5130310;27;20023;-62
2022/07/29 14:28:59;;;;;;;1.03;0.83;;;;;;;;;;5130525;27;20031;-62
2022/07/29 14:31:25;;;;;;;3.17;1.80;;;;;;;;;;5129911;27;20034;-62
2022/07/29 14:33:52;;;;;;;1.50;0.93;;;;;;;;;;5114588;28;20015;-62
2022/07/29 14:36:19;;;;;;;2.03;1.30;;;;;;;;;;5115841;27;20032;-62
2022/07/29 14:38:45;;;;;;;1.83;1.10;;;;;;;;;;5114809;28;20355;-62
2022/07/29 14:41:12;;;;;;;1.57;1.10;;;;;;;;;;5114377;28;20116;-62
2022/07/29 14:43:39;;;;;;;1.80;1.17;;;;;;;;;;5109386;28;20031;-62
2022/07/29 14:46:06;;;;;;;3.30;1.53;;;;;;;;;;5121584;27;20026;-62
2022/07/29 14:48:33;;;;;;;2.70;1.93;;;;;;;;;;5129953;27;20050;-62
2022/07/29 14:51:00;;;;;;;1.67;1.07;;;;;;;;;;5129621;27;20019;-62
2022/07/29 14:53:27;;;;;;;6.23;1.50;;;;;;;;;;5135203;27;20072;-62
2022/07/29 14:55:54;;;;;;;2.37;1.60;;;;;;;;;;5134945;27;20023;-62
2022/07/29 14:58:22;;;;;;;3.00;1.73;;;;;;;;;;5118801;27;20047;-62
2022/07/29 15:00:48;;;;;;;3.07;1.90;;;;;;;;;;5114411;28;20028;-62
2022/07/29 15:03:15;;;;;;;2.00;1.40;;;;;;;;;;5114385;28;20022;-62